createdAt,value
2022-12-27T00:01:23.327Z,62.83
2022-12-27T00:03:49.971Z,64.75
2022-12-27T00:06:22.463Z,64.32
2022-12-27T00:08:49.490Z,51.85
2022-12-27T00:11:19.375Z,59.10
2022-12-27T00:13:46.475Z,56.47
2022-12-27T00:16:20.644Z,54.63
2022-12-27T00:18:49.634Z,62.78
2022-12-27T00:21:17.699Z,60.17
2022-12-27T00:23:48.734Z,56.03
2022-12-27T00:26:35.761Z,63.28
2022-12-27T00:29:03.099Z,61.95
2022-12-27T00:31:31.550Z,63.03
2022-12-27T00:34:00.840Z,54.22
2022-12-27T00:36:29.563Z,47.55
2022-12-27T00:38:57.682Z,50.72
2022-12-27T00:41:25.000Z,56.90
2022-12-27T00:43:52.079Z,57.28
2022-12-27T00:46:19.484Z,57.70
2022-12-27T00:48:46.731Z,67.57
2022-12-27T00:51:19.803Z,68.65
2022-12-27T00:53:47.553Z,68.10
2022-12-27T00:56:16.831Z,73.20
2022-12-27T00:58:44.120Z,73.13
2022-12-27T01:01:18.383Z,72.55
2022-12-27T01:03:45.747Z,73.65
2022-12-27T01:06:15.346Z,70.45
2022-12-27T01:08:42.698Z,73.22
2022-12-27T01:11:10.081Z,71.47
2022-12-27T01:13:37.869Z,73.90
2022-12-27T01:16:14.757Z,75.20
2022-12-27T01:18:42.021Z,73.75
2022-12-27T01:21:10.824Z,75.13
2022-12-27T01:23:38.675Z,78.38
2022-12-27T01:26:08.429Z,79.72
2022-12-27T01:28:35.573Z,77.13
2022-12-27T01:31:24.778Z,75.22
2022-12-27T01:33:58.071Z,72.10
2022-12-27T01:36:26.687Z,69.65
2022-12-27T01:38:53.989Z,70.38
2022-12-27T01:41:48.491Z,68.18
2022-12-27T01:44:52.259Z,72.30
2022-12-27T01:47:40.402Z,71.13
2022-12-27T01:50:20.817Z,74.30
2022-12-27T01:53:21.147Z,68.82
2022-12-27T01:55:50.620Z,63.30
2022-12-27T01:58:25.127Z,64.15
2022-12-27T02:00:52.894Z,60.45
2022-12-27T02:03:27.203Z,62.70
2022-12-27T02:05:54.475Z,62.83
2022-12-27T02:08:43.895Z,57.17
2022-12-27T02:11:11.096Z,63.05
2022-12-27T02:13:42.498Z,60.70
2022-12-27T02:16:18.657Z,59.13
2022-12-27T02:18:46.358Z,60.30
2022-12-27T02:21:25.147Z,61.35
2022-12-27T02:24:10.514Z,58.10
2022-12-27T02:26:40.625Z,60.75
2022-12-27T02:29:26.080Z,59.85
2022-12-27T02:31:57.766Z,60.63
2022-12-27T02:35:04.195Z,63.92
2022-12-27T02:37:33.708Z,67.05
2022-12-27T02:40:23.269Z,69.30
2022-12-27T02:43:10.240Z,66.68
2022-12-27T02:46:02.509Z,64.13
2022-12-27T02:48:47.631Z,57.85
2022-12-27T02:51:50.565Z,59.95
2022-12-27T02:54:56.853Z,71.70
2022-12-27T02:57:52.177Z,68.85
2022-12-27T03:00:42.964Z,62.20
2022-12-27T03:03:45.120Z,72.75
2022-12-27T03:06:42.717Z,80.18
2022-12-27T03:09:35.880Z,81.75
2022-12-27T03:12:32.121Z,77.95
2022-12-27T03:15:30.381Z,70.93
2022-12-27T03:18:08.341Z,72.63
2022-12-27T03:20:55.369Z,70.35
2022-12-27T03:23:40.617Z,67.78
2022-12-27T03:26:09.151Z,65.85
2022-12-27T03:28:55.298Z,61.10
2022-12-27T03:31:46.105Z,61.92
2022-12-27T03:34:32.205Z,58.22
2022-12-27T03:37:26.203Z,57.55
2022-12-27T03:39:59.032Z,55.25
2022-12-27T03:42:46.717Z,56.33
2022-12-27T03:45:13.375Z,59.90
2022-12-27T03:47:50.367Z,58.00
2022-12-27T03:50:34.882Z,56.25
2022-12-27T03:53:11.809Z,55.85
2022-12-27T03:55:57.567Z,66.47
2022-12-27T03:58:24.169Z,58.65
2022-12-27T04:00:50.886Z,65.05
2022-12-27T04:03:17.553Z,64.13
2022-12-27T04:05:44.192Z,57.35
2022-12-27T04:08:29.410Z,61.35
2022-12-27T04:11:14.963Z,63.00
2022-12-27T04:13:59.831Z,55.78
2022-12-27T04:16:44.953Z,63.30
2022-12-27T04:19:30.621Z,55.45
2022-12-27T04:22:15.878Z,65.55
2022-12-27T04:25:01.030Z,49.65
2022-12-27T04:27:46.162Z,47.05
2022-12-27T04:30:31.384Z,58.35
2022-12-27T04:33:16.696Z,59.05
2022-12-27T04:35:43.315Z,64.75
2022-12-27T04:38:10.043Z,79.20
2022-12-27T04:40:55.525Z,57.25
2022-12-27T04:43:40.662Z,51.47
2022-12-27T04:46:38.902Z,46.20
2022-12-27T04:49:24.055Z,51.53
2022-12-27T04:52:09.159Z,47.58
2022-12-27T04:54:54.409Z,49.70
2022-12-27T04:57:21.138Z,53.92
2022-12-27T05:00:06.140Z,61.20
2022-12-27T05:02:33.085Z,57.75
2022-12-27T05:05:00.141Z,56.17
2022-12-27T05:07:45.672Z,57.63
2022-12-27T05:10:31.014Z,62.72
2022-12-27T05:13:16.293Z,53.78
2022-12-27T05:15:42.983Z,52.97
2022-12-27T05:18:09.887Z,53.08
2022-12-27T05:20:36.591Z,48.10
2022-12-27T05:23:22.019Z,47.38
2022-12-27T05:25:48.875Z,64.80
2022-12-27T05:28:15.456Z,49.20
2022-12-27T05:30:43.989Z,41.30
2022-12-27T05:33:11.287Z,45.92
2022-12-27T05:35:38.170Z,48.75
2022-12-27T05:38:05.090Z,46.42
2022-12-27T05:40:32.135Z,45.50
2022-12-27T05:43:00.533Z,52.95
2022-12-27T05:45:28.208Z,48.22
2022-12-27T05:47:55.047Z,45.50
2022-12-27T05:50:21.992Z,57.83
2022-12-27T05:52:48.570Z,63.58
2022-12-27T05:55:15.311Z,76.15
2022-12-27T05:57:42.039Z,83.13
2022-12-27T06:00:09.383Z,93.70
2022-12-27T06:02:36.883Z,95.88
2022-12-27T06:05:03.867Z,92.43
2022-12-27T06:07:30.420Z,92.22
2022-12-27T06:09:57.100Z,97.55
2022-12-27T06:12:23.794Z,96.68
2022-12-27T06:14:50.433Z,95.15
2022-12-27T06:17:17.045Z,100.65
2022-12-27T06:19:43.660Z,98.07
2022-12-27T06:22:10.609Z,100.43
2022-12-27T06:24:37.294Z,94.13
2022-12-27T06:27:04.105Z,89.18
2022-12-27T06:29:30.769Z,91.47
2022-12-27T06:31:57.531Z,84.95
2022-12-27T06:34:24.156Z,84.60
2022-12-27T06:36:52.419Z,78.18
2022-12-27T06:39:19.189Z,73.68
2022-12-27T06:41:46.311Z,67.28
2022-12-27T06:44:13.241Z,68.93
2022-12-27T06:46:39.836Z,64.10
2022-12-27T06:49:06.569Z,61.25
2022-12-27T06:51:34.359Z,58.05
2022-12-27T06:54:01.097Z,59.33
2022-12-27T06:56:27.935Z,58.55
2022-12-27T06:58:54.762Z,59.65
2022-12-27T07:01:24.118Z,55.05
2022-12-27T07:03:52.533Z,54.88
2022-12-27T07:06:20.731Z,54.72
2022-12-27T07:08:48.297Z,57.30
2022-12-27T07:11:15.515Z,57.78
2022-12-27T07:13:44.328Z,57.53
2022-12-27T07:16:14.348Z,59.13
2022-12-27T07:18:42.180Z,60.25
2022-12-27T07:21:11.172Z,58.58
2022-12-27T07:23:38.163Z,59.90
2022-12-27T07:26:07.135Z,58.95
2022-12-27T07:28:34.056Z,59.13
2022-12-27T07:31:05.572Z,59.03
2022-12-27T07:33:32.332Z,61.45
2022-12-27T07:36:02.233Z,62.55
2022-12-27T07:38:29.973Z,63.92
2022-12-27T07:41:00.129Z,62.90
2022-12-27T07:43:29.925Z,63.78
2022-12-27T07:46:03.754Z,70.88
2022-12-27T07:48:30.465Z,67.97
2022-12-27T07:50:57.177Z,70.10
2022-12-27T07:53:24.442Z,66.07
2022-12-27T07:55:51.256Z,60.80
2022-12-27T07:58:21.857Z,60.75
2022-12-27T08:00:51.291Z,62.85
2022-12-27T08:03:18.687Z,60.17
2022-12-27T08:05:49.657Z,61.60
2022-12-27T08:08:18.377Z,60.60
2022-12-27T08:10:45.074Z,63.88
2022-12-27T08:13:11.751Z,62.00
2022-12-27T08:15:42.183Z,62.92
2022-12-27T08:18:09.333Z,63.10
2022-12-27T08:20:36.614Z,63.20
2022-12-27T08:23:03.368Z,64.60
2022-12-27T08:25:30.077Z,63.50
2022-12-27T08:28:08.082Z,62.25
2022-12-27T08:30:35.049Z,64.57
2022-12-27T08:33:03.256Z,64.13
2022-12-27T08:35:52.195Z,63.00
2022-12-27T08:38:17.416Z,62.65
2022-12-27T08:40:45.857Z,61.47
2022-12-27T08:43:13.213Z,59.72
2022-12-27T08:45:39.996Z,60.75
2022-12-27T08:48:07.444Z,57.90
2022-12-27T08:50:34.391Z,56.22
2022-12-27T08:53:02.944Z,56.05
2022-12-27T08:55:30.656Z,57.28
2022-12-27T08:57:58.581Z,55.38
2022-12-27T09:00:26.557Z,54.72
2022-12-27T09:02:53.913Z,54.92
2022-12-27T09:05:22.236Z,55.58
2022-12-27T09:07:49.671Z,56.13
2022-12-27T09:10:17.453Z,55.28
2022-12-27T09:12:45.656Z,56.85
2022-12-27T09:15:12.438Z,57.85
2022-12-27T09:17:39.702Z,59.40
2022-12-27T09:20:06.978Z,54.72
2022-12-27T09:22:33.944Z,57.70
2022-12-27T09:25:00.709Z,51.35
2022-12-27T09:27:27.549Z,51.05
2022-12-27T09:29:54.120Z,47.03
2022-12-27T09:32:20.871Z,39.85
2022-12-27T09:34:47.471Z,42.85
2022-12-27T09:37:14.095Z,41.30
2022-12-27T09:39:40.849Z,40.92
2022-12-27T09:45:14.503Z,36.33
2022-12-27T09:48:07.428Z,31.38
2022-12-27T09:50:56.206Z,27.75
2022-12-27T09:53:49.121Z,27.65
2022-12-27T09:56:23.637Z,28.42
2022-12-27T09:58:55.492Z,29.58
2022-12-27T10:01:29.086Z,30.15
2022-12-27T10:03:55.805Z,32.28
2022-12-27T10:06:48.865Z,32.47
2022-12-27T10:09:27.494Z,34.40
2022-12-27T10:12:10.636Z,36.45
2022-12-27T10:15:01.873Z,36.20
2022-12-27T10:17:52.615Z,36.83
2022-12-27T10:20:46.131Z,36.08
2022-12-27T10:23:18.233Z,35.63
2022-12-27T10:25:46.895Z,36.92
2022-12-27T10:28:23.060Z,37.67
2022-12-27T10:30:49.692Z,39.75
2022-12-27T10:33:28.462Z,39.70
2022-12-27T10:35:55.493Z,41.28
2022-12-27T10:38:22.161Z,42.35
2022-12-27T10:41:05.431Z,43.45
2022-12-27T10:43:38.667Z,39.83
2022-12-27T10:46:16.038Z,35.60
2022-12-27T10:51:49.307Z,38.05
2022-12-27T10:54:28.267Z,30.25
2022-12-27T10:56:57.131Z,31.25
2022-12-27T10:59:28.981Z,29.10
2022-12-27T11:02:02.540Z,21.15
2022-12-27T11:04:31.059Z,21.25
2022-12-27T11:06:59.973Z,22.02
2022-12-27T11:09:50.254Z,14.27
2022-12-27T11:12:26.113Z,14.57
2022-12-27T11:15:05.082Z,14.98
2022-12-27T11:17:40.413Z,17.90
2022-12-27T11:20:37.293Z,17.60
2022-12-27T11:23:09.783Z,19.38
2022-12-27T11:25:51.229Z,18.80
2022-12-27T11:28:31.984Z,17.10
2022-12-27T11:31:05.314Z,15.13
2022-12-27T11:33:47.389Z,15.77
2022-12-27T11:36:23.107Z,15.52
2022-12-27T11:38:51.091Z,17.40
2022-12-27T11:41:27.560Z,18.65
2022-12-27T11:44:13.498Z,18.52
2022-12-27T11:46:53.921Z,18.70
2022-12-27T11:49:29.352Z,24.23
2022-12-27T11:52:49.864Z,26.50
2022-12-27T11:55:40.762Z,26.42
2022-12-27T11:58:44.819Z,26.83
2022-12-27T12:01:30.911Z,25.50
2022-12-27T12:04:31.411Z,25.55
2022-12-27T12:07:19.673Z,25.90
2022-12-27T12:10:08.196Z,28.95
2022-12-27T12:12:37.505Z,42.08
2022-12-27T12:15:13.352Z,27.45
2022-12-27T12:17:52.154Z,28.70
2022-12-27T12:21:15.963Z,29.33
2022-12-27T12:24:19.781Z,25.30
2022-12-27T12:27:13.831Z,28.48
2022-12-27T12:30:02.220Z,26.17
2022-12-27T12:32:36.240Z,26.05
2022-12-27T12:35:17.768Z,28.13
2022-12-27T12:38:08.433Z,29.70
2022-12-27T12:41:02.685Z,28.58
2022-12-27T12:43:35.257Z,28.55
2022-12-27T12:46:32.451Z,29.45
2022-12-27T12:49:29.851Z,25.40
2022-12-27T12:52:26.158Z,25.10
2022-12-27T12:55:48.190Z,26.20
2022-12-27T12:58:56.308Z,25.38
2022-12-27T13:01:30.385Z,17.90
2022-12-27T13:04:09.525Z,16.92
2022-12-27T13:07:08.288Z,13.55
2022-12-27T13:09:40.726Z,10.13
2022-12-27T13:12:17.178Z,8.25
2022-12-27T13:15:02.374Z,7.97
2022-12-27T13:17:53.877Z,3.92
2022-12-27T13:20:44.700Z,2.50
2022-12-27T13:23:22.929Z,1.73
2022-12-27T13:26:00.335Z,1.33
2022-12-27T13:28:54.649Z,1.45
2022-12-27T13:31:49.160Z,1.25
2022-12-27T13:34:18.772Z,2.35
2022-12-27T13:37:17.669Z,3.85
2022-12-27T13:39:47.746Z,2.50
2022-12-27T13:42:38.694Z,3.08
2022-12-27T13:45:09.653Z,1.30
2022-12-27T13:48:15.088Z,2.92
2022-12-27T13:51:00.429Z,1.70
2022-12-27T13:53:45.823Z,3.10
2022-12-27T13:56:53.973Z,3.38
2022-12-27T14:00:00.228Z,3.90
2022-12-27T14:02:55.030Z,4.00
2022-12-27T14:08:59.691Z,3.75
2022-12-27T14:12:00.019Z,4.05
2022-12-27T14:14:28.044Z,3.95
2022-12-27T14:17:10.124Z,6.97
2022-12-27T14:19:42.854Z,5.32
2022-12-27T14:22:40.107Z,7.78
2022-12-27T14:25:24.530Z,4.75
2022-12-27T14:28:00.290Z,5.32
2022-12-27T14:30:44.937Z,5.43
2022-12-27T14:33:55.947Z,5.13
2022-12-27T14:36:37.675Z,5.85
2022-12-27T14:39:16.595Z,4.75
2022-12-27T14:42:09.182Z,4.03
2022-12-27T14:44:57.087Z,4.78
2022-12-27T14:47:45.644Z,4.00
2022-12-27T14:50:36.364Z,5.07
2022-12-27T14:53:15.104Z,4.00
2022-12-27T14:56:00.287Z,5.03
2022-12-27T14:58:55.398Z,4.65
2022-12-27T15:01:40.228Z,5.32
2022-12-27T15:04:28.357Z,7.03
2022-12-27T15:07:47.797Z,9.40
2022-12-27T15:10:36.381Z,4.70
2022-12-27T15:13:24.454Z,3.33
2022-12-27T15:16:17.847Z,2.35
2022-12-27T15:18:47.349Z,2.00
2022-12-27T15:21:23.099Z,1.60
2022-12-27T15:24:31.573Z,2.03
2022-12-27T15:27:05.078Z,1.92
2022-12-27T15:29:50.737Z,2.50
2022-12-27T15:32:26.084Z,3.03
2022-12-27T15:34:58.632Z,4.00
2022-12-27T15:37:47.008Z,5.38
2022-12-27T15:40:32.425Z,5.00
2022-12-27T15:43:20.465Z,4.43
2022-12-27T15:46:03.495Z,6.03
2022-12-27T15:48:55.094Z,4.10
2022-12-27T15:52:03.873Z,3.40
2022-12-27T15:55:04.420Z,2.38
2022-12-27T15:57:52.546Z,4.68
2022-12-27T16:00:25.064Z,3.65
2022-12-27T16:02:55.162Z,3.00
2022-12-27T16:05:26.084Z,5.80
2022-12-27T16:07:53.781Z,3.72
2022-12-27T16:10:38.530Z,2.10
2022-12-27T16:13:05.872Z,2.60
2022-12-27T16:15:53.424Z,3.20
2022-12-27T16:18:20.042Z,3.38
2022-12-27T16:21:09.501Z,6.80
2022-12-27T16:23:41.758Z,6.80
2022-12-27T16:26:28.275Z,9.43
2022-12-27T16:29:16.407Z,9.90
2022-12-27T16:31:51.098Z,13.07
2022-12-27T16:34:24.861Z,12.82
2022-12-27T16:36:54.562Z,12.20
2022-12-27T16:39:45.674Z,12.38
2022-12-27T16:42:12.607Z,15.95
2022-12-27T16:45:23.459Z,12.40
2022-12-27T16:48:11.761Z,12.38
2022-12-27T16:50:52.660Z,12.50
2022-12-27T16:53:49.973Z,11.98
2022-12-27T16:56:24.461Z,12.63
2022-12-27T16:58:51.993Z,9.18
2022-12-27T17:01:18.651Z,5.60
2022-12-27T17:03:48.172Z,3.95
2022-12-27T17:06:34.385Z,3.95
2022-12-27T17:09:10.974Z,2.75
2022-12-27T17:11:52.938Z,2.05
2022-12-27T17:14:31.714Z,1.60
2022-12-27T17:17:16.395Z,1.80
2022-12-27T17:19:49.168Z,2.80
2022-12-27T17:22:22.283Z,2.40
2022-12-27T17:24:49.593Z,1.85
2022-12-27T17:27:20.122Z,1.42
2022-12-27T17:30:14.685Z,1.65
2022-12-27T17:32:50.786Z,2.58
2022-12-27T17:35:54.070Z,3.47
2022-12-27T17:38:44.775Z,3.13
2022-12-27T17:42:03.921Z,3.28
2022-12-27T17:44:57.646Z,3.28
2022-12-27T17:48:01.665Z,4.00
2022-12-27T17:50:28.938Z,4.43
2022-12-27T17:53:29.631Z,3.50
2022-12-27T17:56:19.799Z,3.28
2022-12-27T17:58:46.566Z,2.42
2022-12-27T18:01:13.996Z,3.85
2022-12-27T18:03:45.004Z,2.10
2022-12-27T18:06:12.648Z,2.35
2022-12-27T18:08:39.881Z,2.28
2022-12-27T18:11:07.128Z,4.50
2022-12-27T18:13:37.897Z,6.07
2022-12-27T18:16:16.863Z,4.85
2022-12-27T18:18:48.060Z,3.90
2022-12-27T18:21:24.149Z,2.17
2022-12-27T18:23:53.596Z,2.95
2022-12-27T18:26:39.416Z,2.28
2022-12-27T18:29:10.600Z,1.10
2022-12-27T18:31:50.231Z,1.98
2022-12-27T18:34:22.792Z,1.15
2022-12-27T18:37:03.153Z,1.23
2022-12-27T18:39:35.657Z,0.80
2022-12-27T18:42:05.945Z,0.60
2022-12-27T18:44:43.961Z,0.60
2022-12-27T18:47:18.231Z,0.85
2022-12-27T18:49:45.212Z,0.70
2022-12-27T18:52:21.242Z,0.60
2022-12-27T18:54:47.870Z,0.50
2022-12-27T18:57:35.440Z,0.82
2022-12-27T19:00:21.952Z,2.20
2022-12-27T19:02:49.736Z,4.15
2022-12-27T19:05:19.117Z,5.75
2022-12-27T19:08:00.870Z,5.70
2022-12-27T19:10:30.796Z,2.67
2022-12-27T19:12:58.641Z,2.63
2022-12-27T19:15:25.744Z,1.60
2022-12-27T19:17:57.435Z,1.25
2022-12-27T19:20:29.933Z,1.30
2022-12-27T19:22:59.342Z,1.88
2022-12-27T19:25:28.993Z,0.70
2022-12-27T19:28:10.584Z,0.85
2022-12-27T19:30:51.409Z,0.90
2022-12-27T19:33:31.153Z,1.88
2022-12-27T19:35:58.070Z,2.00
2022-12-27T19:38:27.955Z,4.10
2022-12-27T19:41:03.090Z,3.90
2022-12-27T19:43:38.073Z,3.95
2022-12-27T19:46:05.201Z,4.63
2022-12-27T19:48:32.395Z,5.00
2022-12-27T19:50:59.723Z,5.43
2022-12-27T19:53:57.577Z,4.22
2022-12-27T19:56:25.258Z,3.30
2022-12-27T19:58:51.871Z,2.22
2022-12-27T20:01:18.780Z,3.20
2022-12-27T20:03:45.810Z,2.88
2022-12-27T20:06:20.735Z,2.13
2022-12-27T20:08:52.022Z,2.20
2022-12-27T20:11:21.723Z,3.03
2022-12-27T20:13:49.311Z,2.20
2022-12-27T20:16:18.991Z,2.60
2022-12-27T20:18:46.525Z,2.92
2022-12-27T20:21:15.928Z,1.83
2022-12-27T20:23:42.651Z,0.80
2022-12-27T20:26:09.869Z,1.40
2022-12-27T20:28:36.613Z,0.85
2022-12-27T20:31:13.129Z,1.10
2022-12-27T20:33:40.069Z,1.25
2022-12-27T20:36:07.766Z,1.20
2022-12-27T20:38:35.408Z,1.48
2022-12-27T20:41:11.968Z,1.48
2022-12-27T20:43:38.748Z,1.30
2022-12-27T20:46:10.305Z,1.30
2022-12-27T20:48:38.673Z,1.48
2022-12-27T20:51:07.463Z,1.65
2022-12-27T20:53:34.305Z,1.52
2022-12-27T20:56:01.276Z,1.52
2022-12-27T20:58:28.048Z,1.85
2022-12-27T21:00:54.689Z,2.22
2022-12-27T21:03:21.614Z,1.70
2022-12-27T21:05:49.502Z,1.90
2022-12-27T21:08:16.372Z,2.08
2022-12-27T21:10:43.272Z,2.10
2022-12-27T21:13:09.851Z,2.50
2022-12-27T21:15:42.293Z,2.42
2022-12-27T21:18:09.374Z,2.20
2022-12-27T21:20:35.973Z,2.20
2022-12-27T21:23:02.682Z,2.13
2022-12-27T21:25:29.405Z,1.55
2022-12-27T21:27:56.095Z,1.80
2022-12-27T21:30:22.871Z,2.10
2022-12-27T21:32:49.505Z,2.17
2022-12-27T21:35:16.336Z,2.45
2022-12-27T21:37:42.993Z,2.70
2022-12-27T21:40:10.346Z,2.42
2022-12-27T21:42:36.927Z,2.75
2022-12-27T21:45:04.276Z,2.60
2022-12-27T21:47:31.697Z,2.97
2022-12-27T21:49:58.559Z,2.90
2022-12-27T21:52:25.386Z,3.00
2022-12-27T21:54:52.080Z,3.55
2022-12-27T21:57:18.663Z,3.88
2022-12-27T21:59:45.232Z,3.35
2022-12-27T22:02:12.184Z,4.13
2022-12-27T22:04:39.202Z,4.43
2022-12-27T22:07:06.178Z,4.28
2022-12-27T22:09:32.847Z,4.68
2022-12-27T22:11:59.502Z,3.88
2022-12-27T22:14:28.393Z,4.30
2022-12-27T22:16:56.124Z,3.75
2022-12-27T22:19:23.186Z,4.25
2022-12-27T22:21:49.803Z,4.13
2022-12-27T22:24:20.106Z,4.10
2022-12-27T22:26:48.803Z,3.90
2022-12-27T22:29:15.712Z,3.50
2022-12-27T22:31:42.949Z,3.90
2022-12-27T22:34:09.755Z,4.20
2022-12-27T22:36:36.504Z,4.13
2022-12-27T22:39:03.716Z,3.75
2022-12-27T22:41:32.781Z,4.05
2022-12-27T22:44:20.849Z,4.43
2022-12-27T22:49:34.912Z,4.25
2022-12-27T22:52:01.991Z,4.00
2022-12-27T22:55:05.147Z,3.35
2022-12-27T22:57:15.161Z,3.53
2022-12-27T22:59:41.915Z,4.60
2022-12-27T23:02:08.510Z,4.55
2022-12-27T23:04:35.356Z,3.88
2022-12-27T23:07:02.231Z,4.10
2022-12-27T23:09:29.388Z,4.78
2022-12-27T23:11:56.169Z,5.03
2022-12-27T23:14:23.065Z,5.18
2022-12-27T23:16:49.984Z,4.88
2022-12-27T23:19:19.545Z,5.10
2022-12-27T23:21:46.633Z,5.25
2022-12-27T23:24:13.880Z,5.25
2022-12-27T23:26:41.249Z,5.72
2022-12-27T23:29:08.309Z,5.13
2022-12-27T23:31:34.932Z,5.65
2022-12-27T23:34:01.676Z,5.95
2022-12-27T23:36:28.257Z,5.30
2022-12-27T23:38:55.621Z,5.18
2022-12-27T23:41:24.441Z,5.60
2022-12-27T23:43:54.265Z,5.68
2022-12-27T23:46:29.536Z,5.25
2022-12-27T23:48:57.716Z,5.25
2022-12-27T23:51:25.415Z,4.85
2022-12-27T23:53:52.170Z,4.75
2022-12-27T23:56:20.057Z,5.03
2022-12-27T23:58:47.416Z,5.40
